createdAt,value
2019-03-16T00:01:56.138Z,2.13
2019-03-16T00:04:31.628Z,2.20
2019-03-16T00:07:32.157Z,2.20
2019-03-16T00:10:08.739Z,2.00
2019-03-16T00:12:55.847Z,2.20
2019-03-16T00:15:43.269Z,2.20
2019-03-16T00:18:30.901Z,1.83
2019-03-16T00:21:18.733Z,2.07
2019-03-16T00:24:06.919Z,1.87
2019-03-16T00:26:54.502Z,2.00
2019-03-16T00:29:41.928Z,1.73
2019-03-16T00:32:29.266Z,1.83
2019-03-16T00:35:16.571Z,2.00
2019-03-16T00:38:04.199Z,1.70
2019-03-16T00:40:51.547Z,1.90
2019-03-16T00:43:38.969Z,1.60
2019-03-16T00:46:26.452Z,2.00
2019-03-16T00:49:13.800Z,1.97
2019-03-16T00:52:01.221Z,1.90
2019-03-16T00:54:48.336Z,1.67
2019-03-16T00:57:35.862Z,1.80
2019-03-16T01:00:23.388Z,1.70
2019-03-16T01:03:10.711Z,1.70
2019-03-16T01:05:58.141Z,1.70
2019-03-16T01:08:45.987Z,2.07
2019-03-16T01:11:33.391Z,1.80
2019-03-16T01:14:20.816Z,1.70
2019-03-16T01:17:08.342Z,1.93
2019-03-16T01:19:55.971Z,1.70
2019-03-16T01:22:43.395Z,1.90
2019-03-16T01:25:30.820Z,1.93
2019-03-16T01:28:18.449Z,1.80
2019-03-16T01:31:05.873Z,1.70
2019-03-16T01:33:53.506Z,1.77
2019-03-16T01:36:40.720Z,1.60
2019-03-16T01:39:28.555Z,1.77
2019-03-16T01:42:15.980Z,1.83
2019-03-16T01:45:03.530Z,1.67
2019-03-16T01:47:51.031Z,1.60
2019-03-16T01:50:38.456Z,1.57
2019-03-16T01:53:26.089Z,1.60
2019-03-16T01:56:13.304Z,1.77
2019-03-16T01:59:01.244Z,1.70
2019-03-16T02:01:49.424Z,1.73
2019-03-16T02:04:36.913Z,1.60
2019-03-16T02:07:24.434Z,1.40
2019-03-16T02:10:12.268Z,1.67
2019-03-16T02:12:59.901Z,1.80
2019-03-16T02:15:47.527Z,1.63
2019-03-16T02:18:35.258Z,1.50
2019-03-16T02:21:22.477Z,1.70
2019-03-16T02:24:10.003Z,1.73
2019-03-16T02:26:57.632Z,1.73
2019-03-16T02:29:45.466Z,1.60
2019-03-16T02:32:32.906Z,1.70
2019-03-16T02:35:20.423Z,1.70
2019-03-16T02:38:07.759Z,1.87
2019-03-16T02:40:55.382Z,1.83
2019-03-16T02:43:43.214Z,1.97
2019-03-16T02:46:30.973Z,1.57
2019-03-16T02:49:18.677Z,1.83
2019-03-16T02:52:06.093Z,1.50
2019-03-16T02:54:53.105Z,1.87
2019-03-16T02:57:41.244Z,1.80
2019-03-16T03:00:29.181Z,1.70
2019-03-16T03:03:28.700Z,1.67
2019-03-16T03:06:05.873Z,1.97
2019-03-16T03:08:53.311Z,1.80
2019-03-16T03:11:41.029Z,1.97
2019-03-16T03:14:28.152Z,2.00
2019-03-16T03:17:15.880Z,2.00
2019-03-16T03:20:04.940Z,1.80
2019-03-16T03:22:52.880Z,1.90
2019-03-16T03:25:40.404Z,1.73
2019-03-16T03:28:27.831Z,1.80
2019-03-16T03:31:15.458Z,1.80
2019-03-16T03:34:03.201Z,1.77
2019-03-16T03:36:51.124Z,1.80
2019-03-16T03:39:38.240Z,1.90
2019-03-16T03:42:25.668Z,1.70
2019-03-16T03:45:14.138Z,2.10
2019-03-16T03:48:01.644Z,1.83
2019-03-16T03:50:49.066Z,1.87
2019-03-16T03:53:40.805Z,2.10
2019-03-16T03:56:26.060Z,1.80
2019-03-16T03:59:13.691Z,2.10
2019-03-16T04:02:01.317Z,2.00
2019-03-16T04:04:48.845Z,2.20
2019-03-16T04:07:36.891Z,1.97
2019-03-16T04:10:24.821Z,1.70
2019-03-16T04:13:12.643Z,2.37
2019-03-16T04:16:00.309Z,1.60
2019-03-16T04:18:51.460Z,2.37
2019-03-16T04:21:36.873Z,2.30
2019-03-16T04:24:24.301Z,2.13
2019-03-16T04:27:16.331Z,2.20
2019-03-16T04:30:01.619Z,1.83
2019-03-16T04:32:48.616Z,1.93
2019-03-16T04:35:36.142Z,2.27
2019-03-16T04:38:24.179Z,2.20
2019-03-16T04:41:11.402Z,2.37
2019-03-16T04:43:59.234Z,2.20
2019-03-16T04:46:46.506Z,2.03
2019-03-16T04:49:34.186Z,2.20
2019-03-16T04:52:21.819Z,1.97
2019-03-16T04:55:10.057Z,2.40
2019-03-16T04:57:57.493Z,2.00
2019-03-16T05:00:45.518Z,1.87
2019-03-16T05:03:32.944Z,2.13
2019-03-16T05:06:20.268Z,2.30
2019-03-16T05:09:08.303Z,2.27
2019-03-16T05:11:55.523Z,2.10
2019-03-16T05:14:43.255Z,1.80
2019-03-16T05:17:30.677Z,2.03
2019-03-16T05:20:17.905Z,2.50
2019-03-16T05:23:05.016Z,2.27
2019-03-16T05:25:52.442Z,2.20
2019-03-16T05:28:40.178Z,2.47
2019-03-16T05:31:27.697Z,2.00
2019-03-16T05:34:15.223Z,2.10
2019-03-16T05:37:02.646Z,2.47
2019-03-16T05:39:50.071Z,2.60
2019-03-16T05:42:38.011Z,2.47
2019-03-16T05:45:25.535Z,2.70
2019-03-16T05:48:12.665Z,2.30
2019-03-16T05:51:00.383Z,2.30
2019-03-16T05:53:47.910Z,2.47
2019-03-16T05:56:35.026Z,2.30
2019-03-16T05:59:22.690Z,2.27
2019-03-16T06:02:10.488Z,2.33
2019-03-16T06:05:09.889Z,2.40
2019-03-16T06:07:47.590Z,2.73
2019-03-16T06:10:35.426Z,2.80
2019-03-16T06:13:23.159Z,2.63
2019-03-16T06:16:10.684Z,2.43
2019-03-16T06:18:59.134Z,2.60
2019-03-16T06:21:46.655Z,2.67
2019-03-16T06:24:33.924Z,2.30
2019-03-16T06:27:21.196Z,2.30
2019-03-16T06:30:13.903Z,2.30
2019-03-16T06:33:01.475Z,2.40
2019-03-16T06:35:48.794Z,2.20
2019-03-16T06:38:36.325Z,2.17
2019-03-16T06:41:23.746Z,2.17
2019-03-16T06:44:11.584Z,2.20
2019-03-16T06:46:59.313Z,2.33
2019-03-16T06:49:47.011Z,2.50
2019-03-16T06:52:34.575Z,2.80
2019-03-16T06:55:22.214Z,3.10
2019-03-16T06:58:10.048Z,2.70
2019-03-16T07:00:57.660Z,2.90
2019-03-16T07:03:45.192Z,2.90
2019-03-16T07:06:32.309Z,2.90
2019-03-16T07:09:20.035Z,2.47
2019-03-16T07:12:07.561Z,2.77
2019-03-16T07:14:55.088Z,2.83
2019-03-16T07:17:42.822Z,3.00
2019-03-16T07:20:30.436Z,2.57
2019-03-16T07:23:17.629Z,2.67
2019-03-16T07:26:14.604Z,2.80
2019-03-16T07:28:54.770Z,2.70
2019-03-16T07:31:42.402Z,2.20
2019-03-16T07:34:29.879Z,2.53
2019-03-16T07:37:17.143Z,2.63
2019-03-16T07:40:08.048Z,2.83
2019-03-16T07:42:56.530Z,2.20
2019-03-16T07:45:44.022Z,2.40
2019-03-16T07:48:31.243Z,2.47
2019-03-16T07:51:18.876Z,2.83
2019-03-16T07:54:07.528Z,2.37
2019-03-16T07:56:55.262Z,2.57
2019-03-16T07:59:42.578Z,2.40
2019-03-16T08:02:29.835Z,2.20
2019-03-16T08:05:19.199Z,2.13
2019-03-16T08:08:06.386Z,2.10
2019-03-16T08:10:54.019Z,2.23
2019-03-16T08:13:41.543Z,2.27
2019-03-16T08:16:28.966Z,2.00
2019-03-16T08:19:16.803Z,2.03
2019-03-16T08:22:04.228Z,2.33
2019-03-16T08:24:51.755Z,1.90
2019-03-16T08:27:39.106Z,1.93
2019-03-16T08:30:26.975Z,1.90
2019-03-16T08:33:14.275Z,1.90
2019-03-16T08:36:01.651Z,1.83
2019-03-16T08:38:49.077Z,1.87
2019-03-16T08:41:36.946Z,1.50
2019-03-16T08:44:24.129Z,1.70
2019-03-16T08:47:11.766Z,1.80
2019-03-16T08:50:00.486Z,1.50
2019-03-16T08:52:48.358Z,1.53
2019-03-16T08:55:35.575Z,1.57
2019-03-16T08:58:24.116Z,1.50
2019-03-16T09:01:11.809Z,1.50
2019-03-16T09:03:59.481Z,1.80
2019-03-16T09:06:47.493Z,1.70
2019-03-16T09:09:34.439Z,1.90
2019-03-16T09:12:21.869Z,1.70
2019-03-16T09:15:14.807Z,1.67
2019-03-16T09:18:02.029Z,1.50
2019-03-16T09:20:49.655Z,1.50
2019-03-16T09:23:37.623Z,1.70
2019-03-16T09:26:25.048Z,1.53
2019-03-16T09:29:15.298Z,1.50
2019-03-16T09:32:01.706Z,1.67
2019-03-16T09:34:49.341Z,1.70
2019-03-16T09:37:37.067Z,1.57
2019-03-16T09:40:24.988Z,1.80
2019-03-16T09:43:12.636Z,1.43
2019-03-16T09:46:00.363Z,1.70
2019-03-16T09:48:48.202Z,1.40
2019-03-16T09:51:36.648Z,1.40
2019-03-16T09:54:24.379Z,1.40
2019-03-16T09:57:12.161Z,1.40
2019-03-16T10:00:00.415Z,1.60
2019-03-16T10:02:48.082Z,1.30
2019-03-16T10:05:36.226Z,1.47
2019-03-16T10:08:24.068Z,1.30
2019-03-16T10:11:11.588Z,1.30
2019-03-16T10:13:58.701Z,1.40
2019-03-16T10:16:46.025Z,1.27
2019-03-16T10:19:33.753Z,1.20
2019-03-16T10:22:21.612Z,1.37
2019-03-16T10:25:10.261Z,1.20
2019-03-16T10:27:57.671Z,1.13
2019-03-16T10:30:44.883Z,1.00
2019-03-16T10:33:33.025Z,1.10
2019-03-16T10:36:20.681Z,0.80
2019-03-16T10:39:08.285Z,0.90
2019-03-16T10:41:55.914Z,0.90
2019-03-16T10:44:43.440Z,0.87
2019-03-16T10:47:31.272Z,0.80
2019-03-16T10:50:19.495Z,0.60
2019-03-16T10:53:07.149Z,0.77
2019-03-16T10:55:54.980Z,0.80
2019-03-16T10:58:42.400Z,0.50
2019-03-16T11:01:30.350Z,0.57
2019-03-16T11:04:18.894Z,0.60
2019-03-16T11:07:06.111Z,0.80
2019-03-16T11:09:53.536Z,0.60
2019-03-16T11:12:41.581Z,0.60
2019-03-16T11:15:29.508Z,0.47
2019-03-16T11:18:17.034Z,0.57
2019-03-16T11:21:28.274Z,0.40
2019-03-16T11:24:15.947Z,0.40
2019-03-16T11:27:03.782Z,0.33
2019-03-16T11:29:52.438Z,0.30
2019-03-16T11:32:40.638Z,0.50
2019-03-16T11:35:29.439Z,0.30
2019-03-16T11:38:17.164Z,0.30
2019-03-16T11:41:04.282Z,0.30
2019-03-16T11:43:52.253Z,0.40
2019-03-16T11:46:40.421Z,0.30
2019-03-16T11:49:28.424Z,0.50
2019-03-16T11:52:15.729Z,0.50
2019-03-16T11:55:04.267Z,0.60
2019-03-16T11:57:51.897Z,0.53
2019-03-16T12:00:39.119Z,0.57
2019-03-16T12:03:26.957Z,0.60
2019-03-16T12:06:14.395Z,0.80
2019-03-16T12:09:02.211Z,0.60
2019-03-16T12:11:50.964Z,0.60
2019-03-16T12:14:38.389Z,0.90
2019-03-16T12:17:26.120Z,0.80
2019-03-16T12:20:18.824Z,1.00
2019-03-16T12:23:06.191Z,0.90
2019-03-16T12:25:54.128Z,1.00
2019-03-16T12:28:42.049Z,0.90
2019-03-16T12:31:29.796Z,0.80
2019-03-16T12:34:17.323Z,0.70
2019-03-16T12:37:05.054Z,0.90
2019-03-16T12:39:52.793Z,0.80
2019-03-16T12:42:41.028Z,0.50
2019-03-16T12:45:28.599Z,0.70
2019-03-16T12:48:16.288Z,0.60
2019-03-16T12:51:04.333Z,0.53
2019-03-16T12:53:51.659Z,0.80
2019-03-16T12:56:39.786Z,0.90
2019-03-16T12:59:27.313Z,0.90
2019-03-16T13:02:15.352Z,0.77
2019-03-16T13:05:03.399Z,0.80
2019-03-16T13:07:50.916Z,1.00
2019-03-16T13:10:38.141Z,0.60
2019-03-16T13:13:25.871Z,1.10
2019-03-16T13:16:13.604Z,1.10
2019-03-16T13:19:00.826Z,0.70
2019-03-16T13:21:48.630Z,0.70
2019-03-16T13:24:36.076Z,0.93
2019-03-16T13:27:23.705Z,0.80
2019-03-16T13:30:16.572Z,0.90
2019-03-16T13:33:03.780Z,0.60
2019-03-16T13:35:51.456Z,0.63
2019-03-16T13:38:38.835Z,2.60
2019-03-16T13:41:26.666Z,0.70
2019-03-16T13:44:14.087Z,0.80
2019-03-16T13:47:02.672Z,0.70
2019-03-16T13:49:49.964Z,0.70
2019-03-16T13:52:37.384Z,0.70
2019-03-16T13:55:24.912Z,0.87
2019-03-16T13:58:13.767Z,0.93
2019-03-16T14:01:01.192Z,0.97
2019-03-16T14:03:48.620Z,0.63
2019-03-16T14:06:36.551Z,0.50
2019-03-16T14:09:24.286Z,0.80
2019-03-16T14:12:11.815Z,0.80
2019-03-16T14:14:59.136Z,0.80
2019-03-16T14:17:46.668Z,1.00
2019-03-16T14:20:34.312Z,0.70
2019-03-16T14:23:22.026Z,0.67
2019-03-16T14:26:09.445Z,0.70
2019-03-16T14:28:57.073Z,0.60
2019-03-16T14:31:44.807Z,0.60
2019-03-16T14:34:32.330Z,0.73
2019-03-16T14:37:19.859Z,0.83
2019-03-16T14:40:12.770Z,0.60
2019-03-16T14:43:00.550Z,0.60
2019-03-16T14:45:49.126Z,0.80
2019-03-16T14:48:36.831Z,0.60
2019-03-16T14:51:25.375Z,0.60
2019-03-16T14:54:12.901Z,0.70
2019-03-16T14:57:01.958Z,0.80
2019-03-16T14:59:48.585Z,0.80
2019-03-16T15:02:36.096Z,0.60
2019-03-16T15:05:23.730Z,0.70
2019-03-16T15:08:11.148Z,0.60
2019-03-16T15:10:58.565Z,0.70
2019-03-16T15:13:46.512Z,0.80
2019-03-16T15:16:34.447Z,0.83
2019-03-16T15:19:22.287Z,1.30
2019-03-16T15:22:19.388Z,1.07
2019-03-16T15:25:11.266Z,1.67
2019-03-16T15:27:58.390Z,5.60
2019-03-16T15:30:50.704Z,10.83
2019-03-16T15:33:35.992Z,8.13
2019-03-16T15:36:23.724Z,1.20
2019-03-16T15:39:11.558Z,1.20
2019-03-16T15:41:59.389Z,1.00
2019-03-16T15:44:47.017Z,0.70
2019-03-16T15:47:34.555Z,0.90
2019-03-16T15:50:22.074Z,0.80
2019-03-16T15:53:10.011Z,0.90
2019-03-16T15:55:57.943Z,0.67
2019-03-16T15:58:46.706Z,0.60
2019-03-16T16:01:34.428Z,0.50
2019-03-16T16:04:22.474Z,0.70
2019-03-16T16:07:10.201Z,1.00
2019-03-16T16:09:57.520Z,0.73
2019-03-16T16:12:44.854Z,0.77
2019-03-16T16:15:32.284Z,0.90
2019-03-16T16:18:21.434Z,0.97
2019-03-16T16:21:09.270Z,1.10
2019-03-16T16:23:56.839Z,1.10
2019-03-16T16:26:44.628Z,1.23
2019-03-16T16:29:32.256Z,0.90
2019-03-16T16:32:19.679Z,1.00
2019-03-16T16:35:09.183Z,1.00
2019-03-16T16:37:56.681Z,1.00
2019-03-16T16:40:44.410Z,1.23
2019-03-16T16:43:32.149Z,1.30
2019-03-16T16:46:19.670Z,1.20
2019-03-16T16:49:07.297Z,1.30
2019-03-16T16:51:55.131Z,1.40
2019-03-16T16:54:42.864Z,1.40
2019-03-16T16:57:30.598Z,1.73
2019-03-16T17:00:22.544Z,1.40
2019-03-16T17:03:10.153Z,2.77
2019-03-16T17:05:57.679Z,2.13
2019-03-16T17:08:44.898Z,3.07
2019-03-16T17:11:32.220Z,3.00
2019-03-16T17:14:20.053Z,2.10
2019-03-16T17:17:07.787Z,1.87
2019-03-16T17:19:55.727Z,2.17
2019-03-16T17:22:43.256Z,1.80
2019-03-16T17:25:30.777Z,3.70
2019-03-16T17:28:18.507Z,2.20
2019-03-16T17:31:09.208Z,1.70
2019-03-16T17:33:57.041Z,1.60
2019-03-16T17:36:44.467Z,2.07
2019-03-16T17:39:31.788Z,2.00
2019-03-16T17:42:19.518Z,2.00
2019-03-16T17:45:10.007Z,1.53
2019-03-16T17:47:57.658Z,1.87
2019-03-16T17:50:45.275Z,1.90
2019-03-16T17:53:32.712Z,1.60
2019-03-16T17:56:20.026Z,1.97
2019-03-16T17:59:07.647Z,1.80
2019-03-16T18:01:55.384Z,1.90
2019-03-16T18:04:43.205Z,1.93
2019-03-16T18:07:30.946Z,1.93
2019-03-16T18:10:18.573Z,3.40
2019-03-16T18:13:05.899Z,2.60
2019-03-16T18:15:53.629Z,2.90
2019-03-16T18:18:41.155Z,2.20
2019-03-16T18:21:28.685Z,2.30
2019-03-16T18:24:16.519Z,2.60
2019-03-16T18:27:04.045Z,2.50
2019-03-16T18:29:51.776Z,2.30
2019-03-16T18:32:39.404Z,2.63
2019-03-16T18:35:27.140Z,2.77
2019-03-16T18:38:14.865Z,2.73
2019-03-16T18:41:02.309Z,3.20
2019-03-16T18:43:49.716Z,3.17
2019-03-16T18:46:37.142Z,2.80
2019-03-16T18:49:24.256Z,3.23
2019-03-16T18:52:11.781Z,2.77
2019-03-16T18:54:59.415Z,3.57
2019-03-16T18:57:46.844Z,3.47
2019-03-16T19:00:34.461Z,3.80
2019-03-16T19:03:22.193Z,3.80
2019-03-16T19:06:10.128Z,3.87
2019-03-16T19:08:57.965Z,4.53
2019-03-16T19:11:46.005Z,5.17
2019-03-16T19:14:33.426Z,5.10
2019-03-16T19:17:21.259Z,6.03
2019-03-16T19:20:16.990Z,6.47
2019-03-16T19:23:04.495Z,6.53
2019-03-16T19:25:51.934Z,7.00
2019-03-16T19:28:39.779Z,6.87
2019-03-16T19:31:27.600Z,7.03
2019-03-16T19:34:14.819Z,7.10
2019-03-16T19:37:02.361Z,6.13
2019-03-16T19:39:49.766Z,5.97
2019-03-16T19:42:37.203Z,5.60
2019-03-16T19:45:24.820Z,5.30
2019-03-16T19:48:12.633Z,5.10
2019-03-16T19:50:59.671Z,4.63
2019-03-16T19:53:47.503Z,3.90
2019-03-16T19:56:35.028Z,3.60
2019-03-16T19:59:22.968Z,3.73
2019-03-16T20:02:10.696Z,3.53
2019-03-16T20:04:57.815Z,3.10
2019-03-16T20:07:45.479Z,3.03
2019-03-16T20:10:33.290Z,2.80
2019-03-16T20:13:20.710Z,2.80
2019-03-16T20:16:08.021Z,2.67
2019-03-16T20:18:55.653Z,2.60
2019-03-16T20:21:43.076Z,2.50
2019-03-16T20:24:30.705Z,2.30
2019-03-16T20:27:18.442Z,2.40
2019-03-16T20:30:13.918Z,2.30
2019-03-16T20:33:04.088Z,2.60
2019-03-16T20:35:50.641Z,2.60
2019-03-16T20:38:38.067Z,2.77
2019-03-16T20:41:35.663Z,2.90
2019-03-16T20:44:14.963Z,2.60
2019-03-16T20:47:02.749Z,3.07
2019-03-16T20:49:50.325Z,2.47
2019-03-16T20:52:37.749Z,2.87
2019-03-16T20:55:25.584Z,2.43
2019-03-16T20:58:12.802Z,2.70
2019-03-16T21:01:00.300Z,2.40
2019-03-16T21:03:47.889Z,2.60
2019-03-16T21:06:35.277Z,2.53
2019-03-16T21:09:23.008Z,2.70
2019-03-16T21:12:10.741Z,2.80
2019-03-16T21:14:58.931Z,2.83
2019-03-16T21:17:46.000Z,2.77
2019-03-16T21:20:33.526Z,2.70
2019-03-16T21:23:21.255Z,2.80
2019-03-16T21:26:08.887Z,2.97
2019-03-16T21:28:56.323Z,3.33
2019-03-16T21:31:43.737Z,3.10
2019-03-16T21:34:33.414Z,3.10
2019-03-16T21:37:21.245Z,3.00
2019-03-16T21:40:13.788Z,2.80
2019-03-16T21:43:01.114Z,2.93
2019-03-16T21:45:48.843Z,3.10
2019-03-16T21:48:36.270Z,2.80
2019-03-16T21:51:24.202Z,2.80
2019-03-16T21:54:12.036Z,2.80
2019-03-16T21:56:59.909Z,2.87
2019-03-16T21:59:47.499Z,2.73
2019-03-16T22:02:35.337Z,2.73
2019-03-16T22:05:23.166Z,2.50
2019-03-16T22:08:11.007Z,2.83
2019-03-16T22:10:58.424Z,2.50
2019-03-16T22:13:45.950Z,2.60
2019-03-16T22:16:33.480Z,2.50
2019-03-16T22:19:21.312Z,2.50
2019-03-16T22:22:08.939Z,2.10
2019-03-16T22:24:56.571Z,2.50
2019-03-16T22:27:44.420Z,2.30
2019-03-16T22:30:31.624Z,2.00
2019-03-16T22:33:19.355Z,2.40
2019-03-16T22:36:06.368Z,2.00
2019-03-16T22:38:53.794Z,1.90
2019-03-16T22:41:41.323Z,1.90
2019-03-16T22:44:28.544Z,1.77
2019-03-16T22:47:15.552Z,2.00
2019-03-16T22:50:03.466Z,1.70
2019-03-16T22:52:50.579Z,1.70
2019-03-16T22:55:38.136Z,1.73
2019-03-16T22:58:25.565Z,1.70
2019-03-16T23:01:13.191Z,1.77
2019-03-16T23:04:06.736Z,1.77
2019-03-16T23:06:50.185Z,1.70
2019-03-16T23:09:38.020Z,1.70
2019-03-16T23:12:27.504Z,1.70
2019-03-16T23:15:15.433Z,1.80
2019-03-16T23:18:03.367Z,1.60
2019-03-16T23:20:51.205Z,1.60
2019-03-16T23:23:38.519Z,1.77
2019-03-16T23:26:37.928Z,1.70
2019-03-16T23:29:16.240Z,1.60
2019-03-16T23:32:03.469Z,1.90
2019-03-16T23:34:50.884Z,1.70
2019-03-16T23:37:39.642Z,1.80
2019-03-16T23:40:26.671Z,1.90
2019-03-16T23:43:15.098Z,1.90
2019-03-16T23:46:04.366Z,1.80
2019-03-16T23:48:51.996Z,1.87
2019-03-16T23:51:39.444Z,1.90
2019-03-16T23:54:27.080Z,1.57
2019-03-16T23:57:14.266Z,1.67
